createdAt,value
2018-11-13T00:00:29.074Z,3.40
2018-11-13T00:02:57.799Z,3.40
2018-11-13T00:05:26.662Z,3.50
2018-11-13T00:07:55.115Z,3.97
2018-11-13T00:10:24.171Z,3.80
2018-11-13T00:12:52.603Z,4.27
2018-11-13T00:15:21.008Z,5.93
2018-11-13T00:17:49.522Z,7.10
2018-11-13T00:20:19.457Z,6.60
2018-11-13T00:22:47.949Z,5.53
2018-11-13T00:25:17.653Z,5.40
2018-11-13T00:27:46.419Z,5.60
2018-11-13T00:30:17.640Z,4.33
2018-11-13T00:32:46.451Z,5.10
2018-11-13T00:35:15.827Z,5.03
2018-11-13T00:37:45.060Z,4.83
2018-11-13T00:40:14.356Z,5.30
2018-11-13T00:42:43.756Z,5.03
2018-11-13T00:45:12.270Z,4.73
2018-11-13T00:47:40.748Z,5.53
2018-11-13T00:50:14.110Z,5.50
2018-11-13T00:52:44.277Z,6.10
2018-11-13T00:55:12.928Z,6.23
2018-11-13T00:57:42.379Z,7.43
2018-11-13T01:00:14.214Z,6.37
2018-11-13T01:05:19.220Z,5.80
2018-11-13T01:07:48.557Z,5.20
2018-11-13T01:10:18.019Z,6.13
2018-11-13T01:12:47.560Z,6.13
2018-11-13T01:15:17.632Z,6.20
2018-11-13T01:17:47.487Z,6.40
2018-11-13T01:20:16.643Z,6.83
2018-11-13T01:22:45.325Z,7.20
2018-11-13T01:25:14.854Z,6.00
2018-11-13T01:27:44.105Z,5.60
2018-11-13T01:30:13.520Z,6.20
2018-11-13T01:32:42.610Z,6.47
2018-11-13T01:35:12.491Z,6.03
2018-11-13T01:37:41.050Z,6.60
2018-11-13T01:40:14.155Z,6.60
2018-11-13T01:42:42.839Z,6.37
2018-11-13T01:45:12.523Z,5.87
2018-11-13T01:47:43.775Z,6.57
2018-11-13T01:50:14.431Z,6.30
2018-11-13T01:52:42.866Z,5.00
2018-11-13T01:55:12.482Z,4.93
2018-11-13T01:57:41.007Z,4.87
2018-11-13T02:00:18.830Z,4.73
2018-11-13T02:02:48.691Z,4.33
2018-11-13T02:05:18.210Z,4.40
2018-11-13T02:07:46.909Z,4.40
2018-11-13T02:10:16.086Z,4.00
2018-11-13T02:12:44.736Z,3.97
2018-11-13T02:15:13.303Z,3.73
2018-11-13T02:17:42.850Z,3.97
2018-11-13T02:20:13.511Z,2.80
2018-11-13T02:22:42.143Z,3.17
2018-11-13T02:25:12.704Z,3.00
2018-11-13T02:27:41.774Z,2.60
2018-11-13T02:30:13.066Z,2.90
2018-11-13T02:32:42.324Z,2.60
2018-11-13T02:35:11.577Z,2.40
2018-11-13T02:37:40.091Z,1.90
2018-11-13T02:40:09.317Z,2.00
2018-11-13T02:42:38.403Z,1.97
2018-11-13T02:45:10.752Z,1.60
2018-11-13T02:47:39.689Z,1.67
2018-11-13T02:50:09.978Z,1.70
2018-11-13T02:52:39.480Z,1.70
2018-11-13T02:55:08.435Z,1.40
2018-11-13T02:57:36.939Z,1.40
2018-11-13T03:00:07.846Z,1.60
2018-11-13T03:02:36.274Z,1.60
2018-11-13T03:05:05.495Z,1.50
2018-11-13T03:07:34.055Z,1.57
2018-11-13T03:10:02.530Z,1.23
2018-11-13T03:12:30.992Z,1.47
2018-11-13T03:14:59.451Z,1.33
2018-11-13T03:17:27.903Z,1.57
2018-11-13T03:19:56.367Z,1.27
2018-11-13T03:22:24.837Z,1.60
2018-11-13T03:24:53.337Z,1.60
2018-11-13T03:27:21.789Z,1.60
2018-11-13T03:29:50.272Z,2.10
2018-11-13T03:32:18.803Z,1.70
2018-11-13T03:34:47.279Z,1.93
2018-11-13T03:37:15.779Z,1.90
2018-11-13T03:39:44.207Z,2.57
2018-11-13T03:42:12.665Z,2.30
2018-11-13T03:44:41.141Z,2.43
2018-11-13T03:47:09.614Z,2.57
2018-11-13T03:49:41.879Z,1.93
2018-11-13T03:52:10.283Z,2.60
2018-11-13T03:54:38.733Z,3.10
2018-11-13T03:57:07.211Z,3.33
2018-11-13T03:59:35.687Z,4.00
2018-11-13T04:02:04.395Z,3.33
2018-11-13T04:04:32.820Z,3.80
2018-11-13T04:07:01.322Z,3.20
2018-11-13T04:09:29.744Z,3.60
2018-11-13T04:11:58.243Z,2.60
2018-11-13T04:14:26.687Z,2.00
2018-11-13T04:16:55.110Z,2.10
2018-11-13T04:19:23.537Z,2.10
2018-11-13T04:21:57.918Z,1.80
2018-11-13T04:24:26.459Z,1.70
2018-11-13T04:26:54.930Z,1.70
2018-11-13T04:29:23.590Z,2.00
2018-11-13T04:31:52.043Z,2.00
2018-11-13T04:34:20.494Z,1.97
2018-11-13T04:36:48.927Z,1.80
2018-11-13T04:39:17.699Z,2.17
2018-11-13T04:41:46.187Z,2.30
2018-11-13T04:44:14.606Z,2.20
2018-11-13T04:46:43.099Z,2.20
2018-11-13T04:49:11.510Z,2.10
2018-11-13T04:51:40.616Z,2.67
2018-11-13T04:54:08.986Z,1.97
2018-11-13T04:56:37.419Z,2.63
2018-11-13T04:59:05.939Z,2.83
2018-11-13T05:01:34.341Z,3.13
2018-11-13T05:04:02.864Z,2.70
2018-11-13T05:06:31.316Z,2.63
2018-11-13T05:08:59.778Z,2.73
2018-11-13T05:11:28.237Z,2.70
2018-11-13T05:13:56.699Z,1.80
2018-11-13T05:16:25.249Z,2.10
2018-11-13T05:18:53.702Z,1.97
2018-11-13T05:21:22.192Z,2.30
2018-11-13T05:23:50.675Z,2.20
2018-11-13T05:26:19.111Z,1.10
2018-11-13T05:28:47.846Z,1.37
2018-11-13T05:31:16.292Z,1.53
2018-11-13T05:33:44.828Z,1.03
2018-11-13T05:36:13.265Z,1.00
2018-11-13T05:38:42.072Z,1.10
2018-11-13T05:41:10.565Z,1.37
2018-11-13T05:43:39.067Z,1.30
2018-11-13T05:46:07.492Z,1.10
2018-11-13T05:48:35.931Z,1.13
2018-11-13T05:51:04.430Z,1.17
2018-11-13T05:53:32.915Z,1.00
2018-11-13T05:56:01.379Z,1.20
2018-11-13T05:58:29.886Z,1.37
2018-11-13T06:00:58.367Z,1.37
2018-11-13T06:03:26.860Z,1.00
2018-11-13T06:05:55.313Z,1.33
2018-11-13T06:08:23.938Z,1.37
2018-11-13T06:10:53.091Z,1.10
2018-11-13T06:13:21.627Z,1.03
2018-11-13T06:15:50.109Z,1.27
2018-11-13T06:18:18.653Z,1.00
2018-11-13T06:20:47.007Z,1.20
2018-11-13T06:23:15.518Z,0.83
2018-11-13T06:25:44.000Z,1.20
2018-11-13T06:28:12.487Z,0.90
2018-11-13T06:30:40.991Z,0.93
2018-11-13T06:33:09.520Z,0.80
2018-11-13T06:35:37.967Z,1.10
2018-11-13T06:38:06.490Z,1.00
2018-11-13T06:40:34.942Z,1.20
2018-11-13T06:43:03.384Z,1.10
2018-11-13T06:45:31.929Z,1.00
2018-11-13T06:48:00.379Z,1.40
2018-11-13T06:50:28.863Z,1.00
2018-11-13T06:52:57.309Z,1.30
2018-11-13T06:55:33.290Z,1.40
2018-11-13T06:58:02.437Z,2.47
2018-11-13T07:00:30.871Z,1.20
2018-11-13T07:02:59.246Z,1.90
2018-11-13T07:05:27.731Z,1.20
2018-11-13T07:07:56.199Z,1.40
2018-11-13T07:10:25.836Z,1.30
2018-11-13T07:12:54.887Z,1.50
2018-11-13T07:15:25.430Z,1.37
2018-11-13T07:17:55.322Z,1.70
2018-11-13T07:20:25.320Z,1.33
2018-11-13T07:22:53.745Z,1.20
2018-11-13T07:25:22.440Z,1.30
2018-11-13T07:27:52.014Z,1.40
2018-11-13T07:30:20.942Z,1.13
2018-11-13T07:32:49.399Z,1.20
2018-11-13T07:35:18.888Z,1.10
2018-11-13T07:37:52.407Z,1.30
2018-11-13T07:40:21.054Z,1.10
2018-11-13T07:42:49.660Z,1.30
2018-11-13T07:45:18.493Z,1.10
2018-11-13T07:47:47.612Z,1.33
2018-11-13T07:50:16.971Z,1.50
2018-11-13T07:52:46.777Z,1.23
2018-11-13T07:55:16.259Z,1.10
2018-11-13T07:57:44.895Z,1.23
2018-11-13T08:00:19.837Z,0.80
2018-11-13T08:02:49.454Z,0.80
2018-11-13T08:05:17.998Z,0.90
2018-11-13T08:07:46.767Z,0.93
2018-11-13T08:10:15.479Z,1.07
2018-11-13T08:12:43.993Z,1.10
2018-11-13T08:15:14.723Z,1.20
2018-11-13T08:17:43.448Z,1.00
2018-11-13T08:20:13.373Z,1.00
2018-11-13T08:22:43.103Z,1.03
2018-11-13T08:25:13.872Z,1.60
2018-11-13T08:27:42.978Z,1.00
2018-11-13T08:30:13.912Z,4.93
2018-11-13T08:32:42.876Z,2.60
2018-11-13T08:35:11.677Z,1.50
2018-11-13T08:37:40.180Z,1.10
2018-11-13T08:40:11.204Z,1.10
2018-11-13T08:42:39.690Z,1.73
2018-11-13T08:45:08.575Z,1.33
2018-11-13T08:47:37.288Z,1.10
2018-11-13T08:50:06.015Z,0.80
2018-11-13T08:52:34.507Z,2.83
2018-11-13T08:55:02.963Z,1.10
2018-11-13T08:57:31.518Z,1.33
2018-11-13T09:00:00.115Z,2.33
2018-11-13T09:02:28.570Z,1.07
2018-11-13T09:04:57.085Z,0.70
2018-11-13T09:07:25.575Z,1.00
2018-11-13T09:09:54.027Z,1.00
2018-11-13T09:12:22.612Z,0.90
2018-11-13T09:14:51.040Z,1.00
2018-11-13T09:17:19.535Z,0.90
2018-11-13T09:19:48.053Z,0.73
2018-11-13T09:22:16.383Z,0.90
2018-11-13T09:24:45.560Z,1.00
2018-11-13T09:27:14.283Z,0.90
2018-11-13T09:29:42.764Z,0.90
2018-11-13T09:32:11.219Z,1.10
2018-11-13T09:34:39.712Z,1.07
2018-11-13T09:37:08.167Z,1.13
2018-11-13T09:39:36.655Z,1.20
2018-11-13T09:42:05.998Z,1.10
2018-11-13T09:44:34.466Z,1.10
2018-11-13T09:47:02.864Z,0.80
2018-11-13T09:49:31.286Z,0.80
2018-11-13T09:52:00.757Z,0.90
2018-11-13T09:54:29.195Z,0.80
2018-11-13T09:56:57.650Z,1.03
2018-11-13T09:59:26.130Z,1.20
2018-11-13T10:01:54.741Z,1.00
2018-11-13T10:04:23.588Z,1.00
2018-11-13T10:06:51.474Z,1.03
2018-11-13T10:09:20.023Z,1.10
2018-11-13T10:11:48.445Z,1.10
2018-11-13T10:14:16.912Z,1.10
2018-11-13T10:16:47.461Z,1.10
2018-11-13T10:19:16.682Z,0.90
2018-11-13T10:21:45.107Z,0.93
2018-11-13T10:24:13.568Z,0.80
2018-11-13T10:26:42.007Z,1.23
2018-11-13T10:29:10.465Z,1.07
2018-11-13T10:31:38.864Z,1.00
2018-11-13T10:34:07.325Z,1.20
2018-11-13T10:36:35.767Z,1.20
2018-11-13T10:39:04.868Z,1.10
2018-11-13T10:41:33.378Z,1.10
2018-11-13T10:44:01.835Z,0.80
2018-11-13T10:46:30.240Z,1.00
2018-11-13T10:48:58.717Z,1.13
2018-11-13T10:51:27.501Z,1.30
2018-11-13T10:53:56.649Z,0.90
2018-11-13T10:56:25.083Z,1.00
2018-11-13T10:58:53.930Z,0.80
2018-11-13T11:01:27.692Z,1.57
2018-11-13T11:04:01.582Z,1.00
2018-11-13T11:06:32.922Z,1.30
2018-11-13T11:09:01.439Z,0.90
2018-11-13T11:11:30.254Z,1.00
2018-11-13T11:13:59.077Z,1.10
2018-11-13T11:16:27.315Z,1.10
2018-11-13T11:18:55.811Z,1.40
2018-11-13T11:21:24.537Z,0.97
2018-11-13T11:23:52.995Z,1.27
2018-11-13T11:26:22.397Z,1.13
2018-11-13T11:28:50.806Z,1.27
2018-11-13T11:31:19.269Z,1.20
2018-11-13T11:33:47.735Z,1.50
2018-11-13T11:36:16.913Z,1.20
2018-11-13T11:38:45.471Z,1.20
2018-11-13T11:41:13.857Z,1.10
2018-11-13T11:43:42.303Z,1.20
2018-11-13T11:46:10.774Z,1.80
2018-11-13T11:48:40.641Z,1.40
2018-11-13T11:51:09.282Z,1.13
2018-11-13T11:53:37.811Z,1.40
2018-11-13T11:56:06.749Z,1.40
2018-11-13T11:58:35.266Z,1.23
2018-11-13T12:01:04.033Z,1.10
2018-11-13T12:03:32.507Z,1.20
2018-11-13T12:06:01.539Z,1.20
2018-11-13T12:08:30.021Z,1.43
2018-11-13T12:10:58.480Z,1.00
2018-11-13T12:13:26.943Z,1.27
2018-11-13T12:15:55.371Z,1.23
2018-11-13T12:18:23.849Z,0.93
2018-11-13T12:20:52.404Z,2.07
2018-11-13T12:23:20.845Z,1.40
2018-11-13T12:25:49.355Z,1.60
2018-11-13T12:28:17.778Z,1.80
2018-11-13T12:30:46.337Z,1.70
2018-11-13T12:33:14.779Z,1.33
2018-11-13T12:35:43.233Z,1.90
2018-11-13T12:38:12.288Z,1.80
2018-11-13T12:40:42.146Z,1.33
2018-11-13T12:43:10.634Z,1.13
2018-11-13T12:45:39.064Z,1.27
2018-11-13T12:48:07.739Z,1.40
2018-11-13T12:50:41.437Z,1.60
2018-11-13T12:53:10.075Z,1.30
2018-11-13T12:55:38.758Z,1.40
2018-11-13T12:58:07.190Z,1.60
2018-11-13T13:00:35.649Z,1.30
2018-11-13T13:03:04.294Z,1.40
2018-11-13T13:05:32.780Z,1.47
2018-11-13T13:08:01.372Z,1.60
2018-11-13T13:10:29.816Z,1.60
2018-11-13T13:12:58.330Z,1.30
2018-11-13T13:15:26.847Z,1.50
2018-11-13T13:17:55.407Z,1.67
2018-11-13T13:20:25.247Z,1.50
2018-11-13T13:22:53.706Z,1.30
2018-11-13T13:25:23.973Z,1.30
2018-11-13T13:27:52.509Z,1.00
2018-11-13T13:30:22.193Z,1.53
2018-11-13T13:32:50.761Z,1.27
2018-11-13T13:35:54.369Z,1.80
2018-11-13T13:38:23.453Z,1.40
2018-11-13T13:40:52.965Z,1.87
2018-11-13T13:43:22.449Z,1.13
2018-11-13T13:45:51.196Z,1.57
2018-11-13T13:48:20.900Z,1.40
2018-11-13T13:50:49.342Z,1.20
2018-11-13T13:53:18.714Z,1.90
2018-11-13T13:55:47.766Z,1.60
2018-11-13T13:58:16.767Z,1.90
2018-11-13T14:00:45.344Z,2.73
2018-11-13T14:03:14.364Z,1.40
2018-11-13T14:05:43.644Z,1.70
2018-11-13T14:08:13.029Z,1.27
2018-11-13T14:10:41.574Z,1.63
2018-11-13T14:13:10.396Z,1.20
2018-11-13T14:15:38.935Z,1.47
2018-11-13T14:18:07.375Z,1.20
2018-11-13T14:20:35.883Z,1.47
2018-11-13T14:23:05.384Z,1.37
2018-11-13T14:25:35.751Z,2.33
2018-11-13T14:28:04.265Z,1.30
2018-11-13T14:30:34.253Z,1.50
2018-11-13T14:33:05.230Z,1.30
2018-11-13T14:35:33.998Z,1.40
2018-11-13T14:38:02.638Z,1.43
2018-11-13T14:40:34.636Z,1.20
2018-11-13T14:43:03.673Z,1.50
2018-11-13T14:45:32.358Z,1.30
2018-11-13T14:48:04.331Z,1.40
2018-11-13T14:50:34.281Z,1.60
2018-11-13T14:53:03.042Z,1.50
2018-11-13T14:55:33.700Z,0.90
2018-11-13T14:58:03.003Z,1.53
2018-11-13T15:00:32.751Z,1.43
2018-11-13T15:03:02.051Z,1.40
2018-11-13T15:05:31.095Z,1.13
2018-11-13T15:08:00.930Z,1.10
2018-11-13T15:10:54.355Z,1.67
2018-11-13T15:13:24.702Z,1.30
2018-11-13T15:15:53.155Z,1.20
2018-11-13T15:18:21.646Z,1.37
2018-11-13T15:20:51.146Z,1.63
2018-11-13T15:23:19.634Z,1.40
2018-11-13T15:25:48.304Z,1.20
2018-11-13T15:28:16.803Z,1.10
2018-11-13T15:30:47.823Z,1.63
2018-11-13T15:33:18.744Z,1.20
2018-11-13T15:35:47.303Z,1.83
2018-11-13T15:38:17.015Z,1.10
2018-11-13T15:40:45.897Z,1.70
2018-11-13T15:43:14.363Z,1.67
2018-11-13T15:45:43.548Z,1.50
2018-11-13T15:48:13.212Z,1.73
2018-11-13T15:50:42.385Z,2.27
2018-11-13T15:53:11.908Z,1.47
2018-11-13T15:55:40.480Z,1.50
2018-11-13T15:58:09.147Z,1.60
2018-11-13T16:00:38.896Z,1.53
2018-11-13T16:03:11.755Z,1.60
2018-11-13T16:05:44.740Z,1.60
2018-11-13T16:08:13.679Z,1.40
2018-11-13T16:10:42.194Z,2.03
2018-11-13T16:13:11.183Z,1.83
2018-11-13T16:15:39.840Z,1.50
2018-11-13T16:18:13.128Z,13.33
2018-11-13T16:20:41.595Z,2.60
2018-11-13T16:23:10.104Z,3.07
2018-11-13T16:25:38.494Z,2.10
2018-11-13T16:28:07.063Z,2.53
2018-11-13T16:30:36.866Z,2.30
2018-11-13T16:33:06.061Z,2.07
2018-11-13T16:35:34.626Z,2.83
2018-11-13T16:38:06.073Z,2.50
2018-11-13T16:40:37.288Z,2.43
2018-11-13T16:43:06.960Z,3.03
2018-11-13T16:45:35.709Z,3.70
2018-11-13T16:48:05.101Z,4.07
2018-11-13T16:50:35.743Z,4.80
2018-11-13T16:53:04.996Z,6.27
2018-11-13T16:55:38.767Z,7.93
2018-11-13T16:58:09.031Z,9.87
2018-11-13T17:00:37.754Z,10.37
2018-11-13T17:03:07.064Z,4.47
2018-11-13T17:05:35.547Z,5.57
2018-11-13T17:08:04.004Z,4.20
2018-11-13T17:10:33.235Z,4.53
2018-11-13T17:13:03.839Z,5.07
2018-11-13T17:15:33.424Z,4.20
2018-11-13T17:18:03.073Z,4.80
2018-11-13T17:20:31.640Z,4.47
2018-11-13T17:23:00.864Z,5.03
2018-11-13T17:25:32.744Z,5.63
2018-11-13T17:28:01.778Z,3.70
2018-11-13T17:30:32.435Z,2.90
2018-11-13T17:33:02.173Z,2.90
2018-11-13T17:35:31.266Z,1.97
2018-11-13T17:38:00.579Z,2.50
2018-11-13T17:40:30.729Z,2.53
2018-11-13T17:43:00.375Z,2.00
2018-11-13T17:48:29.515Z,2.10
2018-11-13T17:50:58.090Z,2.23
2018-11-13T17:53:26.678Z,2.90
2018-11-13T17:55:55.151Z,3.50
2018-11-13T17:58:23.639Z,3.93
2018-11-13T18:00:52.192Z,5.97
2018-11-13T18:03:20.707Z,3.47
2018-11-13T18:05:49.671Z,4.17
2018-11-13T18:08:18.135Z,3.60
2018-11-13T18:10:48.021Z,3.10
2018-11-13T18:13:16.693Z,2.87
2018-11-13T18:15:45.209Z,3.20
2018-11-13T18:18:13.697Z,2.90
2018-11-13T18:20:42.386Z,3.80
2018-11-13T18:23:11.126Z,4.03
2018-11-13T18:25:39.593Z,3.70
2018-11-13T18:28:08.326Z,3.70
2018-11-13T18:30:38.040Z,8.03
2018-11-13T18:33:07.511Z,14.20
2018-11-13T18:35:37.095Z,7.97
2018-11-13T18:38:07.363Z,7.03
2018-11-13T18:40:36.785Z,6.83
2018-11-13T18:43:05.639Z,5.40
2018-11-13T18:45:35.540Z,5.33
2018-11-13T18:48:04.071Z,5.57
2018-11-13T18:50:33.995Z,8.53
2018-11-13T18:53:02.553Z,9.23
2018-11-13T18:55:32.140Z,9.03
2018-11-13T18:58:01.220Z,7.30
2018-11-13T19:00:31.547Z,7.67
2018-11-13T19:03:00.677Z,6.77
2018-11-13T19:05:29.428Z,6.90
2018-11-13T19:07:58.240Z,7.23
2018-11-13T19:10:33.641Z,6.73
2018-11-13T19:13:03.189Z,6.93
2018-11-13T19:15:33.231Z,6.40
2018-11-13T19:18:02.071Z,5.77
2018-11-13T19:20:31.380Z,6.50
2018-11-13T19:23:00.812Z,6.67
2018-11-13T19:25:30.651Z,6.90
2018-11-13T19:28:00.316Z,7.23
2018-11-13T19:30:29.330Z,7.10
2018-11-13T19:32:57.836Z,6.80
2018-11-13T19:35:26.647Z,6.43
2018-11-13T19:37:55.044Z,4.73
2018-11-13T19:40:27.082Z,4.50
2018-11-13T19:42:57.029Z,5.17
2018-11-13T19:45:26.118Z,5.27
2018-11-13T19:47:54.588Z,5.07
2018-11-13T19:50:25.583Z,5.77
2018-11-13T19:52:53.965Z,6.60
2018-11-13T19:55:23.298Z,7.87
2018-11-13T19:57:51.713Z,7.30
2018-11-13T20:00:23.566Z,5.33
2018-11-13T20:02:53.045Z,5.10
2018-11-13T20:05:22.161Z,4.67
2018-11-13T20:07:51.340Z,3.57
2018-11-13T20:10:21.226Z,3.53
2018-11-13T20:12:50.544Z,3.93
2018-11-13T20:15:19.548Z,6.53
2018-11-13T20:17:48.096Z,8.90
2018-11-13T20:20:19.749Z,7.87
2018-11-13T20:22:48.735Z,6.87
2018-11-13T20:25:18.611Z,7.53
2018-11-13T20:27:47.217Z,5.30
2018-11-13T20:30:21.630Z,4.97
2018-11-13T20:32:50.099Z,4.93
2018-11-13T20:35:18.664Z,5.67
2018-11-13T20:37:48.039Z,5.50
2018-11-13T20:40:18.805Z,5.50
2018-11-13T20:42:48.374Z,6.37
2018-11-13T20:45:16.853Z,6.80
2018-11-13T20:47:45.315Z,7.10
2018-11-13T20:50:16.318Z,7.27
2018-11-13T20:52:44.902Z,7.50
2018-11-13T20:55:13.483Z,7.17
2018-11-13T20:57:41.970Z,7.20
2018-11-13T21:00:13.415Z,8.50
2018-11-13T21:02:41.911Z,7.33
2018-11-13T21:05:10.361Z,6.27
2018-11-13T21:07:38.985Z,5.60
2018-11-13T21:10:11.412Z,5.97
2018-11-13T21:12:40.388Z,24.53
2018-11-13T21:15:10.678Z,8.37
2018-11-13T21:17:39.142Z,7.77
2018-11-13T21:20:09.236Z,8.43
2018-11-13T21:22:38.064Z,8.57
2018-11-13T21:25:08.412Z,8.57
2018-11-13T21:27:36.932Z,10.83
2018-11-13T21:30:11.169Z,9.30
2018-11-13T21:32:39.708Z,7.40
2018-11-13T21:35:08.898Z,6.47
2018-11-13T21:37:37.553Z,5.90
2018-11-13T21:40:07.350Z,6.13
2018-11-13T21:42:35.814Z,6.43
2018-11-13T21:45:04.361Z,6.23
2018-11-13T21:47:32.879Z,6.20
2018-11-13T21:50:01.426Z,6.73
2018-11-13T21:52:29.848Z,6.17
2018-11-13T21:54:58.914Z,5.90
2018-11-13T21:57:28.107Z,7.73
2018-11-13T21:59:57.122Z,7.90
2018-11-13T22:02:25.630Z,8.73
2018-11-13T22:04:54.136Z,7.50
2018-11-13T22:07:22.801Z,8.50
2018-11-13T22:09:52.592Z,10.10
2018-11-13T22:12:21.154Z,10.23
2018-11-13T22:14:49.619Z,10.70
2018-11-13T22:17:18.201Z,8.43
2018-11-13T22:19:46.951Z,8.63
2018-11-13T22:22:15.410Z,8.77
2018-11-13T22:24:43.898Z,8.10
2018-11-13T22:27:12.436Z,8.33
2018-11-13T22:29:40.859Z,7.60
2018-11-13T22:32:09.336Z,8.83
2018-11-13T22:34:37.807Z,10.07
2018-11-13T22:37:06.500Z,13.30
2018-11-13T22:39:35.039Z,8.60
2018-11-13T22:42:03.612Z,8.83
2018-11-13T22:44:32.083Z,8.60
2018-11-13T22:47:00.554Z,9.30
2018-11-13T22:49:29.582Z,8.43
2018-11-13T22:51:58.200Z,7.63
2018-11-13T22:54:27.733Z,8.63
2018-11-13T22:56:56.273Z,8.07
2018-11-13T22:59:24.732Z,7.50
2018-11-13T23:01:53.203Z,7.53
2018-11-13T23:04:22.008Z,7.13
2018-11-13T23:06:50.753Z,6.90
2018-11-13T23:09:19.787Z,7.50
2018-11-13T23:11:48.356Z,7.27
2018-11-13T23:14:16.832Z,7.33
2018-11-13T23:16:45.285Z,7.73
2018-11-13T23:19:13.991Z,7.17
2018-11-13T23:21:42.543Z,7.50
2018-11-13T23:24:11.017Z,7.80
2018-11-13T23:26:39.907Z,10.37
2018-11-13T23:29:08.700Z,9.27
2018-11-13T23:31:37.262Z,10.50
2018-11-13T23:34:05.745Z,8.77
2018-11-13T23:36:34.238Z,9.40
2018-11-13T23:39:02.781Z,10.20
2018-11-13T23:41:31.327Z,10.07
2018-11-13T23:43:59.867Z,10.03
2018-11-13T23:46:28.332Z,10.13
2018-11-13T23:48:57.268Z,9.43
2018-11-13T23:51:25.799Z,8.43
2018-11-13T23:53:54.519Z,8.90
2018-11-13T23:56:22.908Z,8.23
2018-11-13T23:58:58.413Z,7.97
